Time;durP1;ratioP1;P1;durP2;ratioP2;P2;SDS_P1;SDS_P2;PMS_P1;PMS_P2;Temp;Humidity;BMP_temperature;BMP_pressure;BME280_temperature;BME280_humidity;BME280_pressure;Samples;Min_cycle;Max_cycle;Signal;HPM_P1;HPM_P2
2023/04/24 00:01:16;;;;;;;10.88;6.55;;;;;;;;;;5071147;28;20043;-64
2023/04/24 00:03:43;;;;;;;10.40;6.65;;;;;;;;;;5084897;27;20541;-64
2023/04/24 00:06:09;;;;;;;8.63;6.75;;;;;;;;;;5085488;28;20203;-64
2023/04/24 00:08:36;;;;;;;10.35;6.78;;;;;;;;;;5066857;28;20047;-65
2023/04/24 00:11:02;;;;;;;11.48;7.03;;;;;;;;;;5081768;27;20052;-65
2023/04/24 00:13:29;;;;;;;11.82;6.88;;;;;;;;;;5087044;28;20511;-64
2023/04/24 00:15:55;;;;;;;9.57;6.43;;;;;;;;;;5083404;28;20407;-64
2023/04/24 00:18:21;;;;;;;10.55;6.75;;;;;;;;;;5082773;28;20083;-64
2023/04/24 00:20:48;;;;;;;10.15;7.63;;;;;;;;;;5068597;28;20160;-65
2023/04/24 00:23:14;;;;;;;10.25;6.85;;;;;;;;;;5086362;28;20122;-64
2023/04/24 00:25:40;;;;;;;9.77;6.88;;;;;;;;;;5085484;28;20113;-64
2023/04/24 00:28:06;;;;;;;11.02;7.50;;;;;;;;;;5088490;28;20070;-64
2023/04/24 00:30:32;;;;;;;11.93;7.28;;;;;;;;;;5085090;28;20097;-65
2023/04/24 00:32:58;;;;;;;10.48;8.23;;;;;;;;;;5084445;28;20175;-64
2023/04/24 00:35:25;;;;;;;11.95;8.50;;;;;;;;;;5086910;28;20084;-64
2023/04/24 00:37:51;;;;;;;14.80;7.63;;;;;;;;;;5086551;28;20035;-64
2023/04/24 00:40:17;;;;;;;11.90;7.82;;;;;;;;;;5084106;28;20044;-65
2023/04/24 00:42:44;;;;;;;10.77;7.68;;;;;;;;;;5085095;28;20459;-64
2023/04/24 00:45:11;;;;;;;11.07;7.55;;;;;;;;;;5084135;28;20051;-65
2023/04/24 00:47:38;;;;;;;11.88;7.28;;;;;;;;;;5085189;28;20036;-64
2023/04/24 00:50:05;;;;;;;10.40;7.20;;;;;;;;;;5066048;28;21213;-65
2023/04/24 00:52:32;;;;;;;7.63;6.63;;;;;;;;;;5049704;28;20042;-64
2023/04/24 00:54:58;;;;;;;9.00;5.93;;;;;;;;;;5065332;28;20494;-65
2023/04/24 00:57:25;;;;;;;7.97;6.15;;;;;;;;;;5089524;28;20090;-65
2023/04/24 00:59:52;;;;;;;7.57;5.78;;;;;;;;;;5087898;28;20040;-64
2023/04/24 01:02:18;;;;;;;9.15;5.85;;;;;;;;;;5088060;28;20032;-64
2023/04/24 01:04:44;;;;;;;9.40;5.63;;;;;;;;;;5084447;28;20162;-64
2023/04/24 01:07:11;;;;;;;7.47;5.97;;;;;;;;;;5085368;28;20031;-65
2023/04/24 01:09:41;;;;;;;10.05;6.55;;;;;;;;;;5087408;27;20055;-65
2023/04/24 01:12:08;;;;;;;7.38;5.95;;;;;;;;;;5088032;27;20197;-64
2023/04/24 01:14:35;;;;;;;7.90;7.00;;;;;;;;;;5087929;27;20044;-64
2023/04/24 01:17:01;;;;;;;7.53;6.50;;;;;;;;;;5091625;27;20036;-65
2023/04/24 01:19:27;;;;;;;11.10;7.65;;;;;;;;;;5088686;27;20047;-64
2023/04/24 01:21:54;;;;;;;7.32;6.35;;;;;;;;;;5089746;27;20642;-65
2023/04/24 01:24:20;;;;;;;8.45;6.95;;;;;;;;;;5087688;27;20244;-64
2023/04/24 01:26:47;;;;;;;9.82;7.35;;;;;;;;;;5092455;28;20078;-64
2023/04/24 01:29:13;;;;;;;8.73;7.18;;;;;;;;;;5087398;27;20059;-64
2023/04/24 01:31:40;;;;;;;11.18;7.95;;;;;;;;;;5088050;27;21266;-64
2023/04/24 01:34:07;;;;;;;10.15;7.72;;;;;;;;;;5091342;27;20050;-64
2023/04/24 01:36:35;;;;;;;12.57;7.97;;;;;;;;;;5090334;27;20082;-64
2023/04/24 01:39:01;;;;;;;12.73;8.05;;;;;;;;;;5091996;28;20107;-64
2023/04/24 01:41:28;;;;;;;13.38;8.52;;;;;;;;;;5088967;27;20380;-64
2023/04/24 01:43:54;;;;;;;12.23;8.80;;;;;;;;;;5088564;28;20081;-64
2023/04/24 01:46:20;;;;;;;9.85;7.82;;;;;;;;;;5069528;28;20576;-64
2023/04/24 01:48:47;;;;;;;14.48;8.32;;;;;;;;;;5090906;27;20036;-64
2023/04/24 01:51:13;;;;;;;10.40;8.27;;;;;;;;;;5073726;27;20532;-64
2023/04/24 01:53:39;;;;;;;10.90;8.63;;;;;;;;;;5090047;27;20486;-64
2023/04/24 01:56:05;;;;;;;11.77;9.13;;;;;;;;;;5090069;27;20035;-64
2023/04/24 01:58:32;;;;;;;14.10;9.35;;;;;;;;;;5090145;27;20058;-64
2023/04/24 02:00:59;;;;;;;13.20;8.98;;;;;;;;;;5077742;28;20154;-65
2023/04/24 02:03:25;;;;;;;11.68;9.52;;;;;;;;;;5092127;27;20046;-64
2023/04/24 02:05:51;;;;;;;13.70;9.57;;;;;;;;;;5077590;28;20052;-64
2023/04/24 02:08:18;;;;;;;12.40;9.25;;;;;;;;;;5095024;27;20044;-64
2023/04/24 02:10:44;;;;;;;11.68;9.27;;;;;;;;;;5074629;27;20536;-65
2023/04/24 02:13:10;;;;;;;12.55;8.85;;;;;;;;;;5068399;28;20039;-65
2023/04/24 02:15:36;;;;;;;11.90;9.57;;;;;;;;;;5072166;28;20052;-65
2023/04/24 02:18:02;;;;;;;13.50;10.00;;;;;;;;;;5090283;27;20103;-64
2023/04/24 02:20:29;;;;;;;13.38;9.77;;;;;;;;;;5087697;27;20067;-64
2023/04/24 02:22:55;;;;;;;13.35;10.68;;;;;;;;;;5091711;27;20458;-65
2023/04/24 02:25:21;;;;;;;13.27;11.23;;;;;;;;;;5087028;27;20504;-65
2023/04/24 02:27:47;;;;;;;16.92;12.77;;;;;;;;;;5089220;27;21554;-64
2023/04/24 02:30:13;;;;;;;15.05;12.35;;;;;;;;;;5075721;28;20518;-64
2023/04/24 02:32:39;;;;;;;13.88;12.13;;;;;;;;;;5072631;27;20504;-65
2023/04/24 02:35:06;;;;;;;14.30;11.75;;;;;;;;;;5096225;28;20055;-64
2023/04/24 02:37:32;;;;;;;14.82;11.32;;;;;;;;;;5090880;27;20762;-65
2023/04/24 02:39:58;;;;;;;17.38;12.95;;;;;;;;;;5092719;27;20040;-64
2023/04/24 02:42:24;;;;;;;18.50;12.10;;;;;;;;;;5093427;27;20047;-65
2023/04/24 02:44:51;;;;;;;16.65;12.10;;;;;;;;;;5088813;27;20151;-64
2023/04/24 02:47:17;;;;;;;15.95;10.93;;;;;;;;;;5091585;27;20120;-64
2023/04/24 02:49:43;;;;;;;16.50;11.82;;;;;;;;;;5091774;27;20077;-64
2023/04/24 02:52:10;;;;;;;13.25;11.65;;;;;;;;;;5086195;27;20036;-65
2023/04/24 02:54:36;;;;;;;14.77;12.23;;;;;;;;;;5088540;27;20048;-65
2023/04/24 02:57:02;;;;;;;18.33;12.68;;;;;;;;;;5072909;28;20189;-65
2023/04/24 02:59:28;;;;;;;16.38;12.60;;;;;;;;;;5087623;27;20040;-65
2023/04/24 03:01:55;;;;;;;19.15;12.85;;;;;;;;;;5086415;27;20104;-64
2023/04/24 03:04:21;;;;;;;17.48;12.35;;;;;;;;;;5071871;28;20127;-63
2023/04/24 03:06:48;;;;;;;13.48;9.93;;;;;;;;;;5085891;27;20438;-64
2023/04/24 03:09:14;;;;;;;11.25;8.30;;;;;;;;;;5086489;27;20036;-64
2023/04/24 03:11:40;;;;;;;12.90;6.93;;;;;;;;;;5086851;27;20713;-64
2023/04/24 03:14:06;;;;;;;7.68;5.05;;;;;;;;;;5083867;27;20063;-64
2023/04/24 03:16:32;;;;;;;5.63;3.60;;;;;;;;;;5067396;28;20043;-65
2023/04/24 03:18:58;;;;;;;7.22;2.67;;;;;;;;;;5084880;27;20432;-64
2023/04/24 03:21:26;;;;;;;4.45;2.97;;;;;;;;;;5084248;27;20036;-65
2023/04/24 03:23:52;;;;;;;4.40;2.55;;;;;;;;;;5087385;28;20078;-64
2023/04/24 03:26:18;;;;;;;5.70;2.30;;;;;;;;;;5085741;27;20079;-65
2023/04/24 03:28:44;;;;;;;3.90;1.83;;;;;;;;;;5086384;27;20071;-65
2023/04/24 03:31:10;;;;;;;3.33;1.70;;;;;;;;;;5066874;28;20073;-65
2023/04/24 03:33:37;;;;;;;4.93;1.80;;;;;;;;;;5087691;27;20047;-65
2023/04/24 03:36:04;;;;;;;3.70;2.00;;;;;;;;;;5085753;27;20042;-64
2023/04/24 03:38:31;;;;;;;4.20;1.48;;;;;;;;;;5065918;28;20451;-64
2023/04/24 03:40:57;;;;;;;4.88;2.28;;;;;;;;;;5086608;27;20096;-65
2023/04/24 03:43:23;;;;;;;3.75;1.83;;;;;;;;;;5087603;27;20044;-64
2023/04/24 03:45:49;;;;;;;4.68;1.48;;;;;;;;;;5085704;27;20360;-64
2023/04/24 03:48:15;;;;;;;4.03;1.50;;;;;;;;;;5083643;27;20039;-64
2023/04/24 03:50:41;;;;;;;4.47;1.63;;;;;;;;;;5082974;28;20105;-65
2023/04/24 03:53:08;;;;;;;2.80;1.48;;;;;;;;;;5083585;27;20403;-64
2023/04/24 03:55:34;;;;;;;2.75;1.50;;;;;;;;;;5066774;28;20489;-64
2023/04/24 03:58:00;;;;;;;2.92;1.42;;;;;;;;;;5084036;28;20093;-65
2023/04/24 04:00:27;;;;;;;4.43;2.05;;;;;;;;;;5087751;28;20149;-64
2023/04/24 04:02:53;;;;;;;5.35;2.40;;;;;;;;;;5067595;28;20150;-65
2023/04/24 04:05:19;;;;;;;5.05;2.33;;;;;;;;;;5065919;28;20152;-64
2023/04/24 04:07:45;;;;;;;5.22;2.80;;;;;;;;;;5071938;28;20051;-64
2023/04/24 04:10:11;;;;;;;4.63;2.78;;;;;;;;;;5084296;27;21821;-65
2023/04/24 04:12:38;;;;;;;4.97;2.85;;;;;;;;;;5084210;28;20040;-64
2023/04/24 04:15:05;;;;;;;5.70;2.53;;;;;;;;;;5085384;28;20048;-65
2023/04/24 04:17:32;;;;;;;4.15;2.20;;;;;;;;;;5068819;28;20060;-64
2023/04/24 04:19:58;;;;;;;5.05;2.30;;;;;;;;;;5051632;28;20040;-65
2023/04/24 04:22:24;;;;;;;4.35;1.77;;;;;;;;;;5087131;28;20347;-65
2023/04/24 04:24:50;;;;;;;5.68;2.30;;;;;;;;;;5085512;28;20208;-65
2023/04/24 04:27:18;;;;;;;8.95;2.50;;;;;;;;;;5085711;28;20063;-64
2023/04/24 04:29:44;;;;;;;10.38;4.07;;;;;;;;;;5084832;28;20055;-65
2023/04/24 04:32:10;;;;;;;6.80;4.35;;;;;;;;;;5069197;28;20070;-65
2023/04/24 04:34:37;;;;;;;7.88;5.05;;;;;;;;;;5087411;28;20044;-64
2023/04/24 04:37:03;;;;;;;9.98;6.15;;;;;;;;;;5067717;28;20094;-64
2023/04/24 04:39:30;;;;;;;14.20;6.43;;;;;;;;;;5086223;28;20036;-65
2023/04/24 04:41:56;;;;;;;8.93;5.70;;;;;;;;;;5071038;28;20102;-65
2023/04/24 04:44:23;;;;;;;8.60;5.13;;;;;;;;;;5099351;27;20138;-65
2023/04/24 04:46:49;;;;;;;9.55;5.95;;;;;;;;;;5079136;28;20407;-68
2023/04/24 04:49:16;;;;;;;11.43;6.75;;;;;;;;;;5078752;28;20547;-65
2023/04/24 04:51:42;;;;;;;9.82;6.80;;;;;;;;;;5098040;27;20062;-65
2023/04/24 04:54:09;;;;;;;10.90;7.15;;;;;;;;;;5077257;28;20055;-65
2023/04/24 04:56:35;;;;;;;11.32;6.95;;;;;;;;;;5079969;27;20051;-64
2023/04/24 04:59:01;;;;;;;11.32;7.40;;;;;;;;;;5096001;27;20137;-89
2023/04/24 05:01:27;;;;;;;9.10;6.88;;;;;;;;;;5079305;28;20048;-64
2023/04/24 05:03:53;;;;;;;11.20;6.20;;;;;;;;;;5096673;27;20044;-65
2023/04/24 05:06:20;;;;;;;8.95;6.22;;;;;;;;;;5094669;27;20040;-67
2023/04/24 05:08:46;;;;;;;11.43;6.10;;;;;;;;;;5099410;27;20043;-67
2023/04/24 05:11:12;;;;;;;12.50;6.55;;;;;;;;;;5095441;27;20055;-67
2023/04/24 05:13:38;;;;;;;10.45;7.28;;;;;;;;;;5080951;27;20041;-67
2023/04/24 05:16:04;;;;;;;18.38;7.85;;;;;;;;;;5076366;28;20040;-64
2023/04/24 05:18:31;;;;;;;17.33;10.05;;;;;;;;;;5077531;28;20051;-64
2023/04/24 05:20:57;;;;;;;19.83;9.32;;;;;;;;;;5074804;27;20044;-64
2023/04/24 05:23:23;;;;;;;15.45;9.05;;;;;;;;;;5095282;27;20387;-65
2023/04/24 05:25:49;;;;;;;12.30;6.75;;;;;;;;;;5078072;28;20048;-64
2023/04/24 05:28:15;;;;;;;12.57;6.85;;;;;;;;;;5095039;27;20474;-64
2023/04/24 05:30:42;;;;;;;11.07;5.70;;;;;;;;;;5090523;27;20112;-65
2023/04/24 05:33:08;;;;;;;8.80;4.57;;;;;;;;;;5095315;28;20515;-64
2023/04/24 05:35:35;;;;;;;5.85;3.70;;;;;;;;;;5094435;28;20062;-64
2023/04/24 05:38:01;;;;;;;6.78;4.00;;;;;;;;;;5101136;28;20116;-63
2023/04/24 05:40:27;;;;;;;6.53;3.92;;;;;;;;;;5093218;28;20445;-64
2023/04/24 05:42:53;;;;;;;7.60;3.85;;;;;;;;;;5082307;27;20050;-64
2023/04/24 05:45:19;;;;;;;5.88;3.25;;;;;;;;;;5098908;28;20063;-64
2023/04/24 05:47:45;;;;;;;7.45;3.10;;;;;;;;;;5101652;28;20066;-64
2023/04/24 05:50:12;;;;;;;8.18;3.08;;;;;;;;;;5096420;27;20653;-64
2023/04/24 05:52:38;;;;;;;8.70;2.65;;;;;;;;;;5073408;28;20048;-64
2023/04/24 05:55:05;;;;;;;8.73;2.53;;;;;;;;;;5077131;28;20067;-64
2023/04/24 05:57:31;;;;;;;5.47;2.38;;;;;;;;;;5098309;27;20462;-64
2023/04/24 05:59:57;;;;;;;7.30;2.40;;;;;;;;;;5078694;28;20534;-64
2023/04/24 06:02:23;;;;;;;7.82;1.70;;;;;;;;;;5093669;27;20047;-64
2023/04/24 06:04:49;;;;;;;6.32;1.85;;;;;;;;;;5094622;27;20135;-63
2023/04/24 06:07:15;;;;;;;5.88;2.00;;;;;;;;;;5093353;27;20043;-64
2023/04/24 06:09:41;;;;;;;8.70;1.70;;;;;;;;;;5071799;27;20104;-63
2023/04/24 06:12:08;;;;;;;6.38;2.00;;;;;;;;;;5091868;27;20067;-63
2023/04/24 06:14:34;;;;;;;6.75;2.33;;;;;;;;;;5095029;27;20486;-63
2023/04/24 06:17:00;;;;;;;6.07;2.15;;;;;;;;;;5091529;27;20505;-63
2023/04/24 06:19:27;;;;;;;7.03;2.40;;;;;;;;;;5100088;27;20035;-63
2023/04/24 06:21:53;;;;;;;8.23;3.22;;;;;;;;;;5094824;27;20056;-64
2023/04/24 06:24:19;;;;;;;11.07;3.63;;;;;;;;;;5073014;28;20036;-63
2023/04/24 06:26:45;;;;;;;5.63;2.72;;;;;;;;;;5095855;27;20154;-63
2023/04/24 06:29:11;;;;;;;6.57;2.72;;;;;;;;;;5078709;28;20079;-63
2023/04/24 06:31:37;;;;;;;6.55;2.33;;;;;;;;;;5071461;28;20055;-64
2023/04/24 06:34:04;;;;;;;7.00;3.25;;;;;;;;;;5093865;27;20055;-64
2023/04/24 06:36:31;;;;;;;10.07;2.70;;;;;;;;;;5096823;27;20040;-63
2023/04/24 06:38:57;;;;;;;7.10;2.40;;;;;;;;;;5056412;27;20108;-63
2023/04/24 06:41:23;;;;;;;11.07;2.42;;;;;;;;;;5094803;27;20040;-63
2023/04/24 06:43:49;;;;;;;8.75;2.90;;;;;;;;;;5093676;27;20035;-70
2023/04/24 06:46:15;;;;;;;8.65;3.15;;;;;;;;;;5087936;27;20063;-62
2023/04/24 06:48:41;;;;;;;12.25;4.22;;;;;;;;;;5090009;27;20081;-63
2023/04/24 06:51:08;;;;;;;14.70;5.20;;;;;;;;;;5095316;27;20110;-64
2023/04/24 06:53:34;;;;;;;11.88;5.63;;;;;;;;;;5092916;27;20061;-64
2023/04/24 06:56:01;;;;;;;13.45;6.47;;;;;;;;;;5093277;27;20101;-64
2023/04/24 06:58:27;;;;;;;15.48;8.45;;;;;;;;;;5093586;27;20044;-64
2023/04/24 07:00:53;;;;;;;19.63;9.25;;;;;;;;;;5091956;27;20047;-65
2023/04/24 07:03:19;;;;;;;21.67;11.80;;;;;;;;;;5093722;28;20054;-65
2023/04/24 07:05:46;;;;;;;23.80;11.65;;;;;;;;;;5070590;28;20125;-65
2023/04/24 07:08:12;;;;;;;21.42;12.82;;;;;;;;;;5075819;27;20044;-64
2023/04/24 07:10:38;;;;;;;21.92;10.50;;;;;;;;;;5093284;28;20044;-64
2023/04/24 07:13:05;;;;;;;20.90;10.00;;;;;;;;;;5094038;27;20039;-64
2023/04/24 07:15:32;;;;;;;20.85;11.07;;;;;;;;;;5090505;27;20043;-64
2023/04/24 07:17:58;;;;;;;20.55;9.93;;;;;;;;;;5092622;27;20048;-64
2023/04/24 07:20:24;;;;;;;20.25;10.95;;;;;;;;;;5092041;27;20044;-65
2023/04/24 07:22:51;;;;;;;15.55;9.77;;;;;;;;;;5091037;27;20051;-65
2023/04/24 07:25:17;;;;;;;17.88;10.68;;;;;;;;;;5073365;28;20064;-65
2023/04/24 07:27:44;;;;;;;25.80;12.27;;;;;;;;;;5092999;27;20070;-77
2023/04/24 07:30:10;;;;;;;27.55;13.20;;;;;;;;;;5074236;28;20447;-63
2023/04/24 07:32:36;;;;;;;21.25;12.60;;;;;;;;;;5095678;27;20053;-67
2023/04/24 07:35:02;;;;;;;21.33;12.88;;;;;;;;;;5093236;27;20479;-64
2023/04/24 07:37:29;;;;;;;25.80;11.88;;;;;;;;;;5101220;27;20120;-65
2023/04/24 07:39:55;;;;;;;26.33;14.68;;;;;;;;;;5096044;28;20513;-66
2023/04/24 07:42:21;;;;;;;21.10;13.30;;;;;;;;;;5079026;28;20047;-65
2023/04/24 07:44:47;;;;;;;23.85;13.18;;;;;;;;;;5098915;27;20080;-65
2023/04/24 07:47:15;;;;;;;23.77;13.38;;;;;;;;;;5079221;28;20604;-65
2023/04/24 07:49:42;;;;;;;22.45;13.10;;;;;;;;;;5067733;28;20470;-65
2023/04/24 07:52:08;;;;;;;25.65;13.23;;;;;;;;;;5083899;28;20112;-65
2023/04/24 07:54:34;;;;;;;23.23;12.70;;;;;;;;;;5096845;28;20032;-63
2023/04/24 07:57:01;;;;;;;22.58;9.93;;;;;;;;;;5099764;28;20067;-65
2023/04/24 07:59:27;;;;;;;21.08;10.52;;;;;;;;;;5093833;27;20162;-65
2023/04/24 08:01:54;;;;;;;21.42;11.35;;;;;;;;;;5069911;28;20114;-64
2023/04/24 08:04:20;;;;;;;20.25;11.52;;;;;;;;;;5088667;27;20093;-82
2023/04/24 08:06:48;;;;;;;20.85;9.95;;;;;;;;;;5075807;28;20051;-67
2023/04/24 08:09:14;;;;;;;19.92;8.07;;;;;;;;;;5072872;28;20447;-63
2023/04/24 08:11:40;;;;;;;15.70;7.90;;;;;;;;;;5077839;28;20047;-62
2023/04/24 08:14:06;;;;;;;17.70;8.15;;;;;;;;;;5072494;28;20453;-62
2023/04/24 08:16:33;;;;;;;20.88;8.25;;;;;;;;;;5069606;28;20048;-60
2023/04/24 08:18:59;;;;;;;12.60;6.80;;;;;;;;;;5089896;28;20043;-63
2023/04/24 08:21:27;;;;;;;12.73;6.82;;;;;;;;;;5095683;27;20047;-60
2023/04/24 08:23:53;;;;;;;15.82;7.05;;;;;;;;;;5074085;28;20039;-60
2023/04/24 08:26:20;;;;;;;9.23;5.72;;;;;;;;;;5075715;28;20052;-60
2023/04/24 08:28:46;;;;;;;11.52;6.10;;;;;;;;;;5091754;28;20093;-80
2023/04/24 08:31:12;;;;;;;12.05;6.47;;;;;;;;;;5079233;28;20126;-61
2023/04/24 08:33:40;;;;;;;11.50;6.18;;;;;;;;;;5094524;28;20044;-61
2023/04/24 08:36:07;;;;;;;11.88;7.35;;;;;;;;;;5098382;28;20350;-61
2023/04/24 08:38:33;;;;;;;12.55;5.97;;;;;;;;;;5090656;28;20055;-61
2023/04/24 08:41:00;;;;;;;16.92;7.20;;;;;;;;;;5096606;28;20082;-60
2023/04/24 08:43:27;;;;;;;12.02;5.07;;;;;;;;;;5094511;28;20460;-60
2023/04/24 08:45:55;;;;;;;13.52;6.00;;;;;;;;;;5094890;28;20105;-60
2023/04/24 08:48:23;;;;;;;14.00;5.40;;;;;;;;;;5074799;28;20575;-60
2023/04/24 08:50:50;;;;;;;15.60;6.07;;;;;;;;;;5092385;28;20070;-60
2023/04/24 08:53:17;;;;;;;17.10;6.65;;;;;;;;;;5061164;28;20095;-60
2023/04/24 08:55:44;;;;;;;18.48;6.05;;;;;;;;;;5091322;28;20489;-60
2023/04/24 08:58:10;;;;;;;17.60;6.25;;;;;;;;;;5090613;28;20073;-60
2023/04/24 09:00:37;;;;;;;11.32;4.20;;;;;;;;;;5092877;28;20115;-61
2023/04/24 09:03:05;;;;;;;9.52;3.70;;;;;;;;;;5095772;28;20035;-61
2023/04/24 09:05:31;;;;;;;12.60;4.65;;;;;;;;;;5073564;28;20058;-60
2023/04/24 09:07:57;;;;;;;15.02;3.80;;;;;;;;;;5076718;28;20219;-60
2023/04/24 09:10:24;;;;;;;11.27;3.33;;;;;;;;;;5092338;28;20132;-60
2023/04/24 09:12:52;;;;;;;14.18;3.80;;;;;;;;;;5093125;28;20038;-60
2023/04/24 09:15:20;;;;;;;10.05;3.08;;;;;;;;;;5090765;28;20044;-60
2023/04/24 09:17:46;;;;;;;9.50;2.78;;;;;;;;;;5089308;28;20461;-60
2023/04/24 09:20:13;;;;;;;11.55;3.30;;;;;;;;;;5072222;28;20040;-60
2023/04/24 09:22:39;;;;;;;14.25;3.85;;;;;;;;;;5088330;28;20040;-63
2023/04/24 09:25:07;;;;;;;13.98;3.33;;;;;;;;;;5071643;28;20614;-62
2023/04/24 09:27:34;;;;;;;16.95;4.63;;;;;;;;;;5090513;28;20367;-61
2023/04/24 09:30:01;;;;;;;16.67;3.35;;;;;;;;;;5102787;27;20402;-61
2023/04/24 09:32:29;;;;;;;21.65;5.00;;;;;;;;;;5074578;28;20398;-61
2023/04/24 09:35:07;;;;;;;16.38;3.88;;;;;;;;;;5098915;27;20126;-61
2023/04/24 09:37:41;;;;;;;16.33;3.40;;;;;;;;;;5097136;27;20055;-61
2023/04/24 09:40:08;;;;;;;7.93;2.63;;;;;;;;;;5096623;27;20044;-61
2023/04/24 09:42:35;;;;;;;12.32;3.38;;;;;;;;;;5094080;27;20036;-61
2023/04/24 09:45:02;;;;;;;16.67;4.50;;;;;;;;;;5091868;28;20048;-61
2023/04/24 09:47:28;;;;;;;10.13;3.10;;;;;;;;;;5073028;27;20475;-61
2023/04/24 09:49:58;;;;;;;11.63;2.80;;;;;;;;;;5091918;27;20043;-61
2023/04/24 09:52:25;;;;;;;11.38;3.45;;;;;;;;;;5090005;27;21371;-61
2023/04/24 09:54:57;;;;;;;10.50;2.53;;;;;;;;;;5096904;27;20052;-61
2023/04/24 09:57:23;;;;;;;13.43;3.75;;;;;;;;;;5081246;27;20139;-61
2023/04/24 09:59:49;;;;;;;12.73;2.85;;;;;;;;;;5101908;27;20081;-61
2023/04/24 10:02:18;;;;;;;16.52;3.20;;;;;;;;;;5093662;27;20055;-61
2023/04/24 10:04:55;;;;;;;11.60;2.92;;;;;;;;;;5091155;28;20032;-60
2023/04/24 10:07:21;;;;;;;15.57;3.20;;;;;;;;;;5063998;28;20044;-60
2023/04/24 10:09:47;;;;;;;15.40;2.90;;;;;;;;;;5091294;27;20558;-61
2023/04/24 10:12:15;;;;;;;9.25;2.60;;;;;;;;;;5094158;27;20036;-61
2023/04/24 10:14:41;;;;;;;11.23;2.08;;;;;;;;;;5092341;27;20071;-60
2023/04/24 10:17:08;;;;;;;12.82;2.72;;;;;;;;;;5094802;27;20135;-60
2023/04/24 10:19:35;;;;;;;10.10;2.70;;;;;;;;;;5089326;27;20119;-61
2023/04/24 10:22:01;;;;;;;12.48;2.92;;;;;;;;;;5074870;27;20125;-61
2023/04/24 10:24:28;;;;;;;9.93;2.53;;;;;;;;;;5071489;27;20070;-60
2023/04/24 10:26:56;;;;;;;11.15;2.10;;;;;;;;;;5089360;27;20101;-61
2023/04/24 10:29:23;;;;;;;10.10;2.08;;;;;;;;;;5091263;27;20108;-60
2023/04/24 10:31:49;;;;;;;7.00;1.80;;;;;;;;;;5089279;27;20043;-61
2023/04/24 10:34:16;;;;;;;10.60;2.20;;;;;;;;;;5089787;27;20044;-61
2023/04/24 10:36:43;;;;;;;18.55;2.83;;;;;;;;;;5070494;28;20044;-60
2023/04/24 10:39:12;;;;;;;8.85;2.00;;;;;;;;;;5062746;28;20520;-61
2023/04/24 10:41:38;;;;;;;13.82;2.67;;;;;;;;;;5075077;28;20044;-61
2023/04/24 10:44:09;;;;;;;13.18;2.90;;;;;;;;;;5092325;27;20522;-61
2023/04/24 10:46:36;;;;;;;10.38;2.53;;;;;;;;;;5096408;28;20104;-62
2023/04/24 10:49:08;;;;;;;10.18;2.22;;;;;;;;;;5079118;28;20517;-61
2023/04/24 10:51:48;;;;;;;12.30;1.90;;;;;;;;;;5091076;27;21269;-62
2023/04/24 10:54:34;;;;;;;7.78;2.03;;;;;;;;;;5068725;28;20040;-60
2023/04/24 10:57:21;;;;;;;9.73;2.78;;;;;;;;;;5092295;28;20044;-60
2023/04/24 10:59:48;;;;;;;10.95;2.47;;;;;;;;;;5089126;28;20563;-60
2023/04/24 11:02:16;;;;;;;12.23;2.17;;;;;;;;;;5092844;28;20043;-61
2023/04/24 11:04:42;;;;;;;9.23;1.98;;;;;;;;;;5075712;28;20044;-61
2023/04/24 11:07:10;;;;;;;11.05;2.50;;;;;;;;;;5078316;28;21290;-61
2023/04/24 11:09:36;;;;;;;10.93;2.10;;;;;;;;;;5090025;27;20051;-61
2023/04/24 11:12:06;;;;;;;6.80;2.05;;;;;;;;;;5093193;27;20040;-61
2023/04/24 11:14:52;;;;;;;11.20;2.45;;;;;;;;;;5087436;28;20449;-61
2023/04/24 11:17:37;;;;;;;13.40;1.92;;;;;;;;;;5088007;28;20051;-61
2023/04/24 11:20:06;;;;;;;7.65;1.65;;;;;;;;;;5070265;28;20059;-61
2023/04/24 11:22:35;;;;;;;9.80;1.10;;;;;;;;;;5075732;28;20475;-61
2023/04/24 11:25:02;;;;;;;7.45;2.08;;;;;;;;;;5082518;28;20044;-61
2023/04/24 11:27:30;;;;;;;5.47;1.42;;;;;;;;;;5103358;27;20083;-61
2023/04/24 11:29:56;;;;;;;5.93;1.38;;;;;;;;;;5096103;27;20056;-61
2023/04/24 11:32:29;;;;;;;10.43;1.45;;;;;;;;;;5091154;28;20521;-60
2023/04/24 11:34:56;;;;;;;7.33;1.60;;;;;;;;;;5072914;28;20077;-62
2023/04/24 11:37:23;;;;;;;5.15;1.25;;;;;;;;;;5103737;28;20302;-61
2023/04/24 11:39:51;;;;;;;6.68;1.50;;;;;;;;;;5099302;28;20492;-61
2023/04/24 11:42:18;;;;;;;5.57;1.00;;;;;;;;;;5099143;27;20051;-61
2023/04/24 11:44:47;;;;;;;10.88;1.90;;;;;;;;;;5079065;28;20042;-61
2023/04/24 11:47:13;;;;;;;7.78;1.42;;;;;;;;;;5096483;27;20127;-60
2023/04/24 11:49:39;;;;;;;8.52;1.90;;;;;;;;;;5098427;28;20048;-60
2023/04/24 11:52:06;;;;;;;3.72;1.10;;;;;;;;;;5095321;27;20460;-60
2023/04/24 11:54:32;;;;;;;6.15;1.58;;;;;;;;;;5094290;28;20028;-60
2023/04/24 11:56:59;;;;;;;8.05;1.90;;;;;;;;;;5094213;28;20066;-60
2023/04/24 11:59:25;;;;;;;9.52;2.10;;;;;;;;;;5071992;28;20051;-61
2023/04/24 12:01:52;;;;;;;10.43;1.73;;;;;;;;;;5095034;28;20047;-60
2023/04/24 12:04:19;;;;;;;5.88;1.60;;;;;;;;;;5094946;28;20454;-61
2023/04/24 12:07:01;;;;;;;15.45;2.58;;;;;;;;;;5096019;28;20061;-60
2023/04/24 12:09:27;;;;;;;11.20;1.92;;;;;;;;;;5076835;28;20096;-60
2023/04/24 12:11:56;;;;;;;9.55;2.03;;;;;;;;;;5072305;28;20072;-61
2023/04/24 12:14:23;;;;;;;7.90;1.20;;;;;;;;;;5089584;28;20398;-60
2023/04/24 12:16:50;;;;;;;11.25;2.58;;;;;;;;;;5083228;28;20040;-61
2023/04/24 12:19:23;;;;;;;6.40;1.20;;;;;;;;;;5106938;28;20165;-61
2023/04/24 12:22:00;;;;;;;8.63;1.48;;;;;;;;;;5091275;27;20581;-61
2023/04/24 12:24:26;;;;;;;5.78;1.20;;;;;;;;;;5082171;28;20048;-61
2023/04/24 12:26:53;;;;;;;6.25;0.95;;;;;;;;;;5091164;28;20071;-61
2023/04/24 12:29:21;;;;;;;5.88;1.13;;;;;;;;;;5083222;28;20051;-60
2023/04/24 12:31:47;;;;;;;4.65;1.30;;;;;;;;;;5081832;28;20510;-60
2023/04/24 12:34:18;;;;;;;10.30;1.65;;;;;;;;;;5095010;28;20380;-60
2023/04/24 12:36:44;;;;;;;4.95;0.90;;;;;;;;;;5069733;28;20056;-61
2023/04/24 12:39:20;;;;;;;8.68;1.10;;;;;;;;;;5097576;28;20047;-61
2023/04/24 12:41:51;;;;;;;4.80;0.90;;;;;;;;;;5093610;28;20040;-61
2023/04/24 12:44:18;;;;;;;4.68;0.90;;;;;;;;;;5091725;28;20040;-61
2023/04/24 12:46:45;;;;;;;4.82;0.88;;;;;;;;;;5093723;28;20149;-61
2023/04/24 12:49:11;;;;;;;3.88;0.90;;;;;;;;;;5095436;28;20071;-61
2023/04/24 12:51:37;;;;;;;3.13;0.60;;;;;;;;;;5089269;28;20047;-61
2023/04/24 12:54:03;;;;;;;4.65;0.70;;;;;;;;;;5075041;28;20113;-61
2023/04/24 12:56:30;;;;;;;5.07;1.02;;;;;;;;;;5093450;28;20044;-61
2023/04/24 12:58:56;;;;;;;9.02;2.35;;;;;;;;;;5089772;28;20051;-61
2023/04/24 13:01:22;;;;;;;5.22;0.95;;;;;;;;;;5071347;28;20130;-61
2023/04/24 13:03:48;;;;;;;9.10;1.38;;;;;;;;;;5095388;28;20075;-61
2023/04/24 13:06:15;;;;;;;5.35;1.38;;;;;;;;;;5098816;28;20047;-61
2023/04/24 13:08:41;;;;;;;6.97;1.20;;;;;;;;;;5097325;28;20604;-61
2023/04/24 13:11:07;;;;;;;8.18;1.48;;;;;;;;;;5097420;27;20100;-60
2023/04/24 13:13:33;;;;;;;6.22;1.17;;;;;;;;;;5094312;27;20165;-61
2023/04/24 13:16:00;;;;;;;6.43;1.40;;;;;;;;;;5099266;28;20432;-61
2023/04/24 13:18:26;;;;;;;10.60;1.60;;;;;;;;;;5097427;27;20054;-61
2023/04/24 13:20:52;;;;;;;16.73;3.00;;;;;;;;;;5078828;28;20047;-61
2023/04/24 13:23:18;;;;;;;9.52;1.95;;;;;;;;;;5098743;27;20636;-61
2023/04/24 13:25:44;;;;;;;10.68;2.20;;;;;;;;;;5075174;28;20101;-62
2023/04/24 13:28:10;;;;;;;13.43;2.97;;;;;;;;;;5083502;28;20094;-61
2023/04/24 13:30:37;;;;;;;15.15;3.50;;;;;;;;;;5097937;27;20072;-61
2023/04/24 13:33:03;;;;;;;12.75;2.70;;;;;;;;;;5094386;27;20509;-61
2023/04/24 13:35:30;;;;;;;12.85;3.20;;;;;;;;;;5077307;28;20040;-61
2023/04/24 13:37:56;;;;;;;13.65;2.28;;;;;;;;;;5076877;28;20130;-61
2023/04/24 13:40:23;;;;;;;15.75;3.05;;;;;;;;;;5099111;28;20035;-63
2023/04/24 13:42:49;;;;;;;15.43;3.20;;;;;;;;;;5101018;27;20044;-61
2023/04/24 13:45:15;;;;;;;18.85;3.30;;;;;;;;;;5082924;28;20067;-61
2023/04/24 13:47:41;;;;;;;13.48;2.60;;;;;;;;;;5102434;27;20055;-61
2023/04/24 13:50:09;;;;;;;8.68;1.60;;;;;;;;;;5105356;27;20120;-61
2023/04/24 13:52:35;;;;;;;6.78;2.03;;;;;;;;;;5103425;27;20104;-61
2023/04/24 13:55:01;;;;;;;6.53;1.45;;;;;;;;;;5105581;27;20044;-61
2023/04/24 13:57:28;;;;;;;10.40;2.35;;;;;;;;;;5097487;27;20054;-61
2023/04/24 13:59:55;;;;;;;11.20;2.42;;;;;;;;;;5079869;28;20125;-61
2023/04/24 14:02:22;;;;;;;7.63;2.00;;;;;;;;;;5079883;28;20050;-61
2023/04/24 14:04:48;;;;;;;6.70;1.60;;;;;;;;;;5092987;27;20040;-61
2023/04/24 14:07:14;;;;;;;9.77;2.15;;;;;;;;;;5093906;28;20040;-61
2023/04/24 14:09:40;;;;;;;10.65;2.17;;;;;;;;;;5095858;28;20041;-61
2023/04/24 14:12:07;;;;;;;15.65;3.33;;;;;;;;;;5100286;27;20074;-61
2023/04/24 14:14:33;;;;;;;10.90;2.70;;;;;;;;;;5091291;27;20047;-61
2023/04/24 14:17:00;;;;;;;12.30;2.55;;;;;;;;;;5077695;28;20044;-61
2023/04/24 14:19:26;;;;;;;11.88;3.42;;;;;;;;;;5074740;27;20067;-62
2023/04/24 14:21:52;;;;;;;10.68;2.25;;;;;;;;;;5093737;28;20050;-62
2023/04/24 14:24:18;;;;;;;18.23;3.40;;;;;;;;;;5094682;27;20047;-69
2023/04/24 14:26:44;;;;;;;15.07;3.35;;;;;;;;;;5060372;28;20060;-61
2023/04/24 14:29:11;;;;;;;15.27;2.92;;;;;;;;;;5092939;27;20069;-61
2023/04/24 14:31:37;;;;;;;15.55;3.35;;;;;;;;;;5094185;27;20047;-61